createdAt,value
2018-02-19T00:00:59.332Z,102051.41
2018-02-19T00:03:26.787Z,102053.45
2018-02-19T00:05:54.273Z,102045.02
2018-02-19T00:08:21.721Z,102036.49
2018-02-19T00:10:49.286Z,102027.92
2018-02-19T00:13:16.871Z,102031.56
2018-02-19T00:15:44.330Z,102032.69
2018-02-19T00:18:11.892Z,102030.80
2018-02-19T00:20:39.398Z,102031.34
2018-02-19T00:23:06.957Z,102035.05
2018-02-19T00:25:34.455Z,102033.80
2018-02-19T00:28:01.946Z,102029.63
2018-02-19T00:30:29.395Z,102032.46
2018-02-19T00:32:56.854Z,102033.39
2018-02-19T00:35:24.339Z,102028.95
2018-02-19T00:37:51.798Z,102027.63
2018-02-19T00:40:19.258Z,102016.22
2018-02-19T00:42:46.743Z,102015.59
2018-02-19T00:45:14.214Z,102017.06
2018-02-19T00:47:41.687Z,102014.80
2018-02-19T00:50:09.155Z,102012.83
2018-02-19T00:52:36.701Z,102018.25
2018-02-19T00:55:04.187Z,102008.19
2018-02-19T00:57:31.646Z,102008.19
2018-02-19T00:59:59.111Z,102016.42
2018-02-19T01:02:26.586Z,102016.77
2018-02-19T01:04:54.057Z,102018.89
2018-02-19T01:07:21.534Z,102011.50
2018-02-19T01:09:49.020Z,102013.77
2018-02-19T01:12:16.481Z,102009.17
2018-02-19T01:14:43.939Z,101999.34
2018-02-19T01:17:11.431Z,102000.81
2018-02-19T01:19:38.921Z,101999.39
2018-02-19T01:22:06.371Z,102005.57
2018-02-19T01:24:33.847Z,101992.91
2018-02-19T01:27:01.322Z,101986.94
2018-02-19T01:29:28.850Z,101984.35
2018-02-19T01:31:56.404Z,101988.57
2018-02-19T01:34:23.863Z,101988.86
2018-02-19T01:36:51.326Z,101977.45
2018-02-19T01:39:18.795Z,101982.63
2018-02-19T01:41:46.246Z,101979.70
2018-02-19T01:44:13.711Z,101968.42
2018-02-19T01:46:41.254Z,101966.05
2018-02-19T01:49:08.709Z,101963.38
2018-02-19T01:51:36.183Z,101955.64
2018-02-19T01:54:03.646Z,101949.09
2018-02-19T01:56:31.177Z,101943.75
2018-02-19T01:58:58.646Z,101943.88
2018-02-19T02:01:26.098Z,101941.20
2018-02-19T02:03:53.651Z,101932.72
2018-02-19T02:06:21.145Z,101929.47
2018-02-19T02:08:48.610Z,101927.80
2018-02-19T02:11:16.058Z,101920.83
2018-02-19T02:13:43.559Z,101916.61
2018-02-19T02:16:11.010Z,101912.31
2018-02-19T02:18:38.459Z,101913.77
2018-02-19T02:21:05.927Z,101905.84
2018-02-19T02:23:33.386Z,101904.30
2018-02-19T02:26:00.872Z,101905.22
2018-02-19T02:28:28.326Z,101905.77
2018-02-19T02:30:55.779Z,101902.34
2018-02-19T02:33:23.259Z,101907.81
2018-02-19T02:35:50.842Z,101904.09
2018-02-19T02:38:18.304Z,101895.78
2018-02-19T02:40:45.827Z,101900.70
2018-02-19T02:43:13.288Z,101898.13
2018-02-19T02:45:40.748Z,101894.87
2018-02-19T02:48:08.238Z,101889.89
2018-02-19T02:50:35.699Z,101883.34
2018-02-19T02:53:03.158Z,101890.02
2018-02-19T02:55:30.651Z,101890.39
2018-02-19T02:57:58.098Z,101881.09
2018-02-19T03:00:25.566Z,101881.80
2018-02-19T03:02:53.054Z,101878.30
2018-02-19T03:05:20.511Z,101876.80
2018-02-19T03:07:47.980Z,101870.41
2018-02-19T03:10:15.455Z,101878.28
2018-02-19T03:12:42.919Z,101872.58
2018-02-19T03:15:10.373Z,101866.34
2018-02-19T03:17:37.849Z,101865.91
2018-02-19T03:20:05.336Z,101865.56
2018-02-19T03:22:32.790Z,101859.17
2018-02-19T03:25:00.282Z,101856.29
2018-02-19T03:27:27.736Z,101855.79
2018-02-19T03:29:55.186Z,101853.25
2018-02-19T03:32:22.677Z,101849.65
2018-02-19T03:34:50.183Z,101844.94
2018-02-19T03:37:17.647Z,101846.02
2018-02-19T03:39:45.246Z,101841.14
2018-02-19T03:42:12.763Z,101840.73
2018-02-19T03:44:40.314Z,101835.97
2018-02-19T03:47:07.798Z,101829.33
2018-02-19T03:49:35.259Z,101829.70
2018-02-19T03:52:02.719Z,101835.25
2018-02-19T03:54:30.196Z,101832.23
2018-02-19T03:56:57.649Z,101831.23
2018-02-19T03:59:25.107Z,101832.68
2018-02-19T04:01:52.595Z,101832.34
2018-02-19T04:04:20.071Z,101827.34
2018-02-19T04:06:47.636Z,101830.92
2018-02-19T04:09:15.114Z,101822.91
2018-02-19T04:11:42.580Z,101826.78
2018-02-19T04:14:10.105Z,101826.89
2018-02-19T04:16:37.558Z,101825.98
2018-02-19T04:19:05.022Z,101828.94
2018-02-19T04:21:32.505Z,101825.06
2018-02-19T04:23:59.964Z,101811.17
2018-02-19T04:26:27.433Z,101816.00
2018-02-19T04:28:54.910Z,101812.13
2018-02-19T04:31:22.373Z,101808.55
2018-02-19T04:33:49.950Z,101804.78
2018-02-19T04:36:17.410Z,101801.03
2018-02-19T04:38:44.876Z,101802.36
2018-02-19T04:41:12.366Z,101798.86
2018-02-19T04:43:39.822Z,101790.94
2018-02-19T04:49:11.259Z,101786.61
2018-02-19T04:51:38.739Z,101785.61
2018-02-19T04:54:06.280Z,101781.39
2018-02-19T04:56:33.845Z,101779.84
2018-02-19T04:59:01.326Z,101782.98
2018-02-19T05:01:28.779Z,101784.52
2018-02-19T05:03:56.239Z,101787.27
2018-02-19T05:06:23.724Z,101787.47
2018-02-19T05:08:51.183Z,101784.92
2018-02-19T05:11:18.648Z,101787.30
2018-02-19T05:13:46.132Z,101791.57
2018-02-19T05:16:13.591Z,101789.05
2018-02-19T05:18:41.042Z,101789.28
2018-02-19T05:21:08.714Z,101787.08
2018-02-19T05:23:36.166Z,101787.95
2018-02-19T05:26:03.619Z,101794.66
2018-02-19T05:28:31.101Z,101791.65
2018-02-19T05:30:58.566Z,101782.05
2018-02-19T05:33:26.097Z,101782.61
2018-02-19T05:35:53.580Z,101789.18
2018-02-19T05:38:21.039Z,101786.84
2018-02-19T05:40:48.502Z,101786.32
2018-02-19T05:43:15.995Z,101790.73
2018-02-19T05:45:43.456Z,101786.70
2018-02-19T05:48:11.086Z,101785.36
2018-02-19T05:50:38.555Z,101784.35
2018-02-19T05:53:06.017Z,101780.92
2018-02-19T05:55:33.494Z,101789.68
2018-02-19T05:58:00.956Z,101783.86
2018-02-19T06:00:28.541Z,101788.42
2018-02-19T06:02:55.999Z,101790.97
2018-02-19T06:05:23.458Z,101793.26
2018-02-19T06:07:51.656Z,101791.62
2018-02-19T06:10:19.182Z,101784.95
2018-02-19T06:12:46.647Z,101780.73
2018-02-19T06:15:14.127Z,101777.56
2018-02-19T06:17:41.668Z,101771.21
2018-02-19T06:20:09.131Z,101763.97
2018-02-19T06:22:36.620Z,101771.86
2018-02-19T06:25:04.111Z,101782.28
2018-02-19T06:27:31.598Z,101776.36
2018-02-19T06:29:59.094Z,101772.76
2018-02-19T06:32:26.555Z,101774.48
2018-02-19T06:34:54.021Z,101774.42
2018-02-19T06:37:21.518Z,101778.02
2018-02-19T06:39:49.082Z,101778.66
2018-02-19T06:42:16.550Z,101777.82
2018-02-19T06:44:44.006Z,101776.77
2018-02-19T06:47:11.476Z,101773.83
2018-02-19T06:49:39.015Z,101772.49
2018-02-19T06:52:06.570Z,101779.16
2018-02-19T06:54:34.074Z,101772.40
2018-02-19T06:57:01.588Z,101776.70
2018-02-19T06:59:29.150Z,101778.48
2018-02-19T07:01:56.610Z,101781.52
2018-02-19T07:04:24.068Z,101781.72
2018-02-19T07:06:51.554Z,101781.52
2018-02-19T07:09:19.007Z,101781.75
2018-02-19T07:11:46.537Z,101781.27
2018-02-19T07:14:14.087Z,101781.84
2018-02-19T07:16:41.654Z,101782.86
2018-02-19T07:19:09.112Z,101781.65
2018-02-19T07:21:36.595Z,101786.14
2018-02-19T07:24:04.050Z,101790.34
2018-02-19T07:26:31.597Z,101783.39
2018-02-19T07:28:59.091Z,101787.27
2018-02-19T07:31:26.543Z,101783.75
2018-02-19T07:33:53.999Z,101783.03
2018-02-19T07:36:21.476Z,101777.36
2018-02-19T07:38:48.963Z,101776.78
2018-02-19T07:41:16.415Z,101770.03
2018-02-19T07:43:43.874Z,101777.80
2018-02-19T07:46:11.382Z,101780.08
2018-02-19T07:48:38.840Z,101780.16
2018-02-19T07:51:06.295Z,101770.09
2018-02-19T07:53:33.821Z,101771.66
2018-02-19T07:56:01.317Z,101762.88
2018-02-19T07:58:28.777Z,101764.44
2018-02-19T08:00:56.246Z,101765.98
2018-02-19T08:03:23.700Z,101775.95
2018-02-19T08:05:51.183Z,101772.19
2018-02-19T08:08:18.659Z,101772.03
2018-02-19T08:10:46.118Z,101766.27
2018-02-19T08:13:13.602Z,101763.02
2018-02-19T08:15:44.600Z,101770.10
2018-02-19T08:18:12.066Z,101759.62
2018-02-19T08:20:39.579Z,101766.16
2018-02-19T08:23:07.051Z,101768.63
2018-02-19T08:25:34.512Z,101767.61
2018-02-19T08:28:01.986Z,101771.64
2018-02-19T08:30:29.455Z,101771.01
2018-02-19T08:32:57.093Z,101772.47
2018-02-19T08:35:24.593Z,101774.15
2018-02-19T08:37:52.048Z,101769.23
2018-02-19T08:40:19.511Z,101763.27
2018-02-19T08:42:46.995Z,101757.68
2018-02-19T08:45:14.528Z,101753.62
2018-02-19T08:47:41.979Z,101751.53
2018-02-19T08:50:10.297Z,101754.83
2018-02-19T08:52:37.754Z,101750.50
2018-02-19T08:55:05.239Z,101747.55
2018-02-19T08:57:32.686Z,101742.42
2018-02-19T09:00:00.147Z,101745.25
2018-02-19T09:02:27.672Z,101737.63
2018-02-19T09:04:55.141Z,101739.36
2018-02-19T09:07:22.600Z,101734.73
2018-02-19T09:09:50.094Z,101737.61
2018-02-19T09:12:17.550Z,101735.91
2018-02-19T09:14:45.011Z,101733.70
2018-02-19T09:17:12.482Z,101729.02
2018-02-19T09:19:39.951Z,101729.44
2018-02-19T09:22:07.438Z,101724.57
2018-02-19T09:24:34.963Z,101723.91
2018-02-19T09:27:02.417Z,101726.01
2018-02-19T09:29:29.903Z,101715.23
2018-02-19T09:31:57.382Z,101716.11
2018-02-19T09:34:24.848Z,101720.92
2018-02-19T09:36:52.310Z,101721.02
2018-02-19T09:39:19.943Z,101719.18
2018-02-19T09:41:47.406Z,101719.38
2018-02-19T09:44:14.904Z,101719.08
2018-02-19T09:46:42.363Z,101708.66
2018-02-19T09:49:09.826Z,101715.60
2018-02-19T09:51:37.307Z,101713.34
2018-02-19T09:54:04.762Z,101715.93
2018-02-19T09:56:32.298Z,101711.96
2018-02-19T09:58:59.775Z,101705.58
2018-02-19T10:01:27.255Z,101700.81
2018-02-19T10:03:54.744Z,101707.67
2018-02-19T10:06:22.203Z,101707.64
2018-02-19T10:08:49.658Z,101701.15
2018-02-19T10:11:17.141Z,101702.81
2018-02-19T10:13:44.611Z,101704.37
2018-02-19T10:16:12.071Z,101707.41
2018-02-19T10:18:39.544Z,101703.23
2018-02-19T10:21:07.028Z,101702.09
2018-02-19T10:23:34.522Z,101703.56
2018-02-19T10:26:01.987Z,101701.25
2018-02-19T10:28:29.449Z,101694.77
2018-02-19T10:30:57.012Z,101695.44
2018-02-19T10:33:24.479Z,101685.20
2018-02-19T10:35:51.935Z,101684.98
2018-02-19T10:38:19.420Z,101683.58
2018-02-19T10:40:46.878Z,101678.48
2018-02-19T10:43:14.418Z,101679.31
2018-02-19T10:45:41.901Z,101674.66
2018-02-19T10:48:09.380Z,101675.32
2018-02-19T10:50:36.838Z,101668.94
2018-02-19T10:53:04.419Z,101672.11
2018-02-19T10:55:31.878Z,101671.06
2018-02-19T10:57:59.330Z,101671.92
2018-02-19T11:03:23.734Z,101667.17
2018-02-19T11:05:51.301Z,101660.47
2018-02-19T11:08:18.770Z,101670.94
2018-02-19T11:10:46.243Z,101657.95
2018-02-19T11:13:13.732Z,101656.94
2018-02-19T11:15:41.214Z,101654.78
2018-02-19T11:18:08.675Z,101664.02
2018-02-19T11:20:36.241Z,101652.88
2018-02-19T11:23:03.699Z,101650.84
2018-02-19T11:25:31.207Z,101647.50
2018-02-19T11:27:58.687Z,101643.41
2018-02-19T11:30:26.155Z,101640.41
2018-02-19T11:32:53.630Z,101643.72
2018-02-19T11:35:21.143Z,101636.52
2018-02-19T11:37:48.608Z,101635.38
2018-02-19T11:40:16.115Z,101632.59
2018-02-19T11:42:43.766Z,101626.86
2018-02-19T11:45:11.273Z,101629.70
2018-02-19T11:47:38.791Z,101615.89
2018-02-19T11:50:06.259Z,101616.86
2018-02-19T11:52:33.732Z,101612.56
2018-02-19T11:55:01.212Z,101616.14
2018-02-19T11:57:28.762Z,101603.06
2018-02-19T11:59:56.279Z,101601.00
2018-02-19T12:02:23.763Z,101604.55
2018-02-19T12:04:51.223Z,101601.87
2018-02-19T12:07:18.731Z,101597.33
2018-02-19T12:09:46.187Z,101603.00
2018-02-19T12:12:13.662Z,101601.30
2018-02-19T12:14:41.151Z,101600.09
2018-02-19T12:17:08.606Z,101595.38
2018-02-19T12:19:36.065Z,101599.70
2018-02-19T12:22:03.538Z,101594.70
2018-02-19T12:24:31.004Z,101596.75
2018-02-19T12:26:58.458Z,101592.78
2018-02-19T12:29:25.959Z,101589.00
2018-02-19T12:31:53.425Z,101585.52
2018-02-19T12:34:20.926Z,101586.82
2018-02-19T12:36:48.450Z,101577.09
2018-02-19T12:39:16.000Z,101580.18
2018-02-19T12:41:43.452Z,101580.00
2018-02-19T12:44:10.947Z,101575.09
2018-02-19T12:46:38.402Z,101572.34
2018-02-19T12:49:05.930Z,101576.13
2018-02-19T12:51:33.430Z,101568.00
2018-02-19T12:54:00.895Z,101562.11
2018-02-19T12:56:28.357Z,101558.71
2018-02-19T12:58:55.820Z,101558.30
2018-02-19T13:01:23.291Z,101555.29
2018-02-19T13:03:50.750Z,101549.59
2018-02-19T13:06:18.227Z,101545.47
2018-02-19T13:08:45.678Z,101554.16
2018-02-19T13:11:13.142Z,101541.84
2018-02-19T13:13:40.634Z,101538.95
2018-02-19T13:16:08.088Z,101541.66
2018-02-19T13:18:35.627Z,101528.41
2018-02-19T13:21:03.098Z,101533.16
2018-02-19T13:23:30.630Z,101530.34
2018-02-19T13:25:58.082Z,101529.41
2018-02-19T13:28:25.540Z,101533.94
2018-02-19T13:30:53.109Z,101530.76
2018-02-19T13:33:20.574Z,101525.44
2018-02-19T13:35:48.053Z,101522.55
2018-02-19T13:38:15.527Z,101511.92
2018-02-19T13:40:42.979Z,101519.29
2018-02-19T13:43:10.438Z,101517.73
2018-02-19T13:45:37.918Z,101519.84
2018-02-19T13:48:05.422Z,101521.01
2018-02-19T13:50:32.874Z,101517.89
2018-02-19T13:53:00.378Z,101518.64
2018-02-19T13:55:27.838Z,101524.30
2018-02-19T13:57:55.295Z,101515.28
2018-02-19T14:00:22.985Z,101521.72
2018-02-19T14:02:50.575Z,101520.30
2018-02-19T14:05:18.651Z,101516.62
2018-02-19T14:07:46.182Z,101512.95
2018-02-19T14:10:13.639Z,101512.34
2018-02-19T14:12:41.123Z,101517.91
2018-02-19T14:15:08.574Z,101516.39
2018-02-19T14:17:36.107Z,101515.27
2018-02-19T14:20:03.630Z,101506.98
2018-02-19T14:22:31.135Z,101511.27
2018-02-19T14:24:58.786Z,101503.94
2018-02-19T14:27:26.262Z,101506.12
2018-02-19T14:29:53.719Z,101505.88
2018-02-19T14:32:21.274Z,101506.30
2018-02-19T14:34:48.844Z,101499.94
2018-02-19T14:37:16.293Z,101507.30
2018-02-19T14:39:43.774Z,101494.92
2018-02-19T14:42:11.235Z,101499.11
2018-02-19T14:44:38.686Z,101490.44
2018-02-19T14:47:06.214Z,101491.00
2018-02-19T14:49:33.723Z,101489.91
2018-02-19T14:52:01.283Z,101493.50
2018-02-19T14:54:28.815Z,101492.96
2018-02-19T14:56:56.289Z,101497.39
2018-02-19T14:59:23.744Z,101498.20
2018-02-19T15:01:51.231Z,101491.11
2018-02-19T15:04:18.753Z,101493.23
2018-02-19T15:06:46.210Z,101495.45
2018-02-19T15:09:13.742Z,101490.02
2018-02-19T15:11:41.203Z,101493.66
2018-02-19T15:14:08.659Z,101487.98
2018-02-19T15:16:36.143Z,101499.27
2018-02-19T15:19:03.602Z,101499.31
2018-02-19T15:21:31.057Z,101495.86
2018-02-19T15:23:58.548Z,101504.54
2018-02-19T15:26:26.089Z,101499.09
2018-02-19T15:28:53.546Z,101489.35
2018-02-19T15:31:21.021Z,101487.28
2018-02-19T15:33:48.532Z,101490.38
2018-02-19T15:36:15.990Z,101487.89
2018-02-19T15:38:43.531Z,101484.44
2018-02-19T15:41:11.007Z,101481.75
2018-02-19T15:43:38.595Z,101472.23
2018-02-19T15:46:06.078Z,101473.51
2018-02-19T15:48:33.611Z,101486.08
2018-02-19T15:51:01.068Z,101480.48
2018-02-19T15:53:28.542Z,101488.12
2018-02-19T15:55:56.030Z,101479.33
2018-02-19T15:58:23.477Z,101481.92
2018-02-19T16:00:50.970Z,101481.50
2018-02-19T16:03:18.426Z,101482.68
2018-02-19T16:05:45.913Z,101480.19
2018-02-19T16:08:13.422Z,101485.14
2018-02-19T16:10:40.878Z,101482.00
2018-02-19T16:13:08.329Z,101486.22
2018-02-19T16:15:35.791Z,101482.70
2018-02-19T16:18:03.287Z,101482.28
2018-02-19T16:20:30.763Z,101483.78
2018-02-19T16:22:58.266Z,101484.90
2018-02-19T16:25:25.755Z,101481.19
2018-02-19T16:27:53.206Z,101482.14
2018-02-19T16:30:20.690Z,101482.70
2018-02-19T16:32:48.195Z,101485.06
2018-02-19T16:35:15.655Z,101480.37
2018-02-19T16:37:43.109Z,101491.10
2018-02-19T16:40:10.590Z,101483.48
2018-02-19T16:42:38.072Z,101486.66
2018-02-19T16:45:05.611Z,101485.48
2018-02-19T16:47:33.101Z,101486.31
2018-02-19T16:50:00.563Z,101482.81
2018-02-19T16:52:28.062Z,101481.37
2018-02-19T16:54:55.530Z,101481.46
2018-02-19T16:57:23.010Z,101479.28
2018-02-19T16:59:50.465Z,101483.72
2018-02-19T17:02:17.997Z,101484.97
2018-02-19T17:04:45.473Z,101480.87
2018-02-19T17:07:12.928Z,101485.40
2018-02-19T17:09:40.382Z,101487.41
2018-02-19T17:12:07.939Z,101490.73
2018-02-19T17:14:35.486Z,101486.62
2018-02-19T17:17:03.040Z,101482.02
2018-02-19T17:19:30.543Z,101483.43
2018-02-19T17:21:58.002Z,101482.48
2018-02-19T17:24:25.559Z,101482.09
2018-02-19T17:26:53.066Z,101476.22
2018-02-19T17:29:20.532Z,101481.67
2018-02-19T17:31:48.096Z,101478.66
2018-02-19T17:34:15.586Z,101480.13
2018-02-19T17:36:43.046Z,101484.39
2018-02-19T17:39:10.608Z,101484.47
2018-02-19T17:41:38.114Z,101477.02
2018-02-19T17:44:05.574Z,101484.06
2018-02-19T17:46:33.031Z,101489.58
2018-02-19T17:49:00.595Z,101483.98
2018-02-19T17:51:28.047Z,101490.84
2018-02-19T17:53:55.513Z,101489.71
2018-02-19T17:56:23.006Z,101491.37
2018-02-19T17:58:50.510Z,101492.30
2018-02-19T18:01:17.951Z,101491.53
2018-02-19T18:03:45.443Z,101492.39
2018-02-19T18:06:12.910Z,101498.95
2018-02-19T18:08:40.454Z,101500.11
2018-02-19T18:11:07.947Z,101498.84
2018-02-19T18:13:35.400Z,101497.74
2018-02-19T18:16:02.887Z,101498.57
2018-02-19T18:18:30.415Z,101495.30
2018-02-19T18:20:57.875Z,101495.96
2018-02-19T18:23:25.361Z,101486.16
2018-02-19T18:25:52.814Z,101491.00
2018-02-19T18:28:20.270Z,101489.39
2018-02-19T18:30:47.756Z,101496.08
2018-02-19T18:33:15.207Z,101493.81
2018-02-19T18:35:42.671Z,101494.89
2018-02-19T18:38:10.202Z,101497.16
2018-02-19T18:40:37.714Z,101492.61
2018-02-19T18:43:05.277Z,101497.46
2018-02-19T18:45:32.734Z,101493.86
2018-02-19T18:48:00.223Z,101493.53
2018-02-19T18:50:27.714Z,101494.30
2018-02-19T18:52:55.190Z,101495.14
2018-02-19T18:55:22.648Z,101492.84
2018-02-19T18:57:50.145Z,101495.41
2018-02-19T19:00:17.674Z,101492.32
2018-02-19T19:02:45.296Z,101487.37
2018-02-19T19:05:12.771Z,101486.97
2018-02-19T19:07:52.170Z,101491.16
2018-02-19T19:10:31.450Z,101492.14
2018-02-19T19:12:58.904Z,101486.70
2018-02-19T19:15:26.371Z,101491.16
2018-02-19T19:17:53.973Z,101488.90
2018-02-19T19:20:21.483Z,101490.48
2018-02-19T19:22:48.945Z,101498.75
2018-02-19T19:25:16.419Z,101491.97
2018-02-19T19:27:43.875Z,101494.73
2018-02-19T19:30:11.336Z,101496.70
2018-02-19T19:32:38.823Z,101497.25
2018-02-19T19:35:06.293Z,101493.80
2018-02-19T19:37:33.756Z,101496.86
2018-02-19T19:40:01.254Z,101489.50
2018-02-19T19:42:28.710Z,101490.86
2018-02-19T19:44:56.187Z,101491.88
2018-02-19T19:47:23.661Z,101483.25
2018-02-19T19:49:51.126Z,101485.42
2018-02-19T19:52:18.640Z,101482.78
2018-02-19T19:54:46.107Z,101483.79
2018-02-19T19:57:13.648Z,101480.16
2018-02-19T19:59:41.134Z,101472.19
2018-02-19T20:02:08.593Z,101469.33
2018-02-19T20:04:36.051Z,101468.04
2018-02-19T20:07:03.541Z,101465.84
2018-02-19T20:09:30.993Z,101466.54
2018-02-19T20:11:58.475Z,101463.87
2018-02-19T20:14:25.947Z,101466.13
2018-02-19T20:16:53.426Z,101462.67
2018-02-19T20:19:20.935Z,101465.20
2018-02-19T20:21:48.400Z,101463.78
2018-02-19T20:24:15.869Z,101464.79
2018-02-19T20:26:43.396Z,101465.03
2018-02-19T20:29:10.844Z,101457.52
2018-02-19T20:31:38.360Z,101459.17
2018-02-19T20:34:05.838Z,101459.54
2018-02-19T20:36:33.298Z,101460.09
2018-02-19T20:39:00.746Z,101460.33
2018-02-19T20:41:28.209Z,101460.00
2018-02-19T20:43:55.668Z,101462.63
2018-02-19T20:46:23.149Z,101459.03
2018-02-19T20:48:50.602Z,101458.06
2018-02-19T20:51:18.061Z,101456.45
2018-02-19T20:53:45.550Z,101459.36
2018-02-19T20:56:13.007Z,101455.25
2018-02-19T20:58:40.462Z,101452.53
2018-02-19T21:01:07.937Z,101454.00
2018-02-19T21:03:35.396Z,101452.11
2018-02-19T21:06:02.851Z,101451.69
2018-02-19T21:08:30.338Z,101453.03
2018-02-19T21:10:57.798Z,101456.63
2018-02-19T21:13:25.249Z,101452.38
2018-02-19T21:15:52.743Z,101452.42
2018-02-19T21:18:20.202Z,101447.02
2018-02-19T21:20:47.747Z,101454.41
2018-02-19T21:23:15.230Z,101449.29
2018-02-19T21:25:42.706Z,101452.88
2018-02-19T21:28:10.193Z,101451.41
2018-02-19T21:30:37.672Z,101446.34
2018-02-19T21:33:05.134Z,101448.97
2018-02-19T21:35:32.610Z,101445.05
2018-02-19T21:38:00.071Z,101443.61
2018-02-19T21:40:27.534Z,101448.18
2018-02-19T21:42:55.017Z,101443.74
2018-02-19T21:45:22.474Z,101448.53
2018-02-19T21:47:50.211Z,101441.28
2018-02-19T21:50:17.701Z,101445.36
2018-02-19T21:52:45.168Z,101446.51
2018-02-19T21:55:12.779Z,101447.62
2018-02-19T21:57:40.334Z,101450.29
2018-02-19T22:00:07.800Z,101445.17
2018-02-19T22:02:35.291Z,101444.32
2018-02-19T22:05:02.756Z,101443.33
2018-02-19T22:07:30.351Z,101443.97
2018-02-19T22:09:57.855Z,101444.52
2018-02-19T22:12:25.308Z,101444.49
2018-02-19T22:14:52.761Z,101439.77
2018-02-19T22:17:20.248Z,101443.48
2018-02-19T22:19:47.710Z,101440.63
2018-02-19T22:22:15.189Z,101438.95
2018-02-19T22:24:42.683Z,101442.12
2018-02-19T22:27:10.165Z,101442.52
2018-02-19T22:29:37.664Z,101441.62
2018-02-19T22:32:05.175Z,101443.11
2018-02-19T22:34:32.685Z,101446.50
2018-02-19T22:37:00.148Z,101440.63
2018-02-19T22:39:27.667Z,101441.55
2018-02-19T22:41:55.134Z,101450.52
2018-02-19T22:44:22.668Z,101442.40
2018-02-19T22:46:50.188Z,101448.16
2018-02-19T22:49:17.638Z,101455.09
2018-02-19T22:51:45.102Z,101448.03
2018-02-19T22:54:12.555Z,101453.19
2018-02-19T22:56:40.060Z,101442.89
2018-02-19T22:59:07.623Z,101449.30
2018-02-19T23:01:35.078Z,101447.13
2018-02-19T23:04:02.569Z,101448.20
2018-02-19T23:06:30.158Z,101452.54
2018-02-19T23:08:57.613Z,101450.29
2018-02-19T23:11:25.087Z,101446.48
2018-02-19T23:13:52.543Z,101444.91
2018-02-19T23:16:20.118Z,101446.25
2018-02-19T23:18:47.587Z,101446.52
2018-02-19T23:21:15.065Z,101446.38
2018-02-19T23:23:42.631Z,101446.38
2018-02-19T23:26:10.093Z,101439.57
2018-02-19T23:28:37.606Z,101439.29
2018-02-19T23:31:05.170Z,101439.60
2018-02-19T23:33:32.628Z,101435.88
2018-02-19T23:36:00.084Z,101435.25
2018-02-19T23:38:27.559Z,101435.05
2018-02-19T23:40:55.014Z,101429.19
2018-02-19T23:43:22.470Z,101431.95
2018-02-19T23:45:49.955Z,101426.11
2018-02-19T23:48:17.411Z,101432.38
2018-02-19T23:50:44.887Z,101425.78
2018-02-19T23:53:12.357Z,101429.44
2018-02-19T23:55:39.893Z,101424.95
2018-02-19T23:58:07.371Z,101430.17
